Cudjoe Key, FL

8:24 AM EST on February 27, 2015 (GMT -0500)
APRSWXNET Cudjoe Key FL US | Change Station
CLOSE
Current Station
Personal Weather Station
Location: Summerland Key, FL
Elevation: 16 ft
Nearby Weather Stations

Elev 16 ft 24.65 °N, 81.48 °W | Updated 21 minutes ago

Overcast
Overcast
70 °F
Feels Like 70 °F
N
16
Wind Variable Wind from NNE
Gusts 19.0 mph

Today
High -- | Low -- °F
--% Chance of Precip.
Yesterday
High -- | Low -- °F
Precip. -- in
6:50 AM 6:27 PM
Waxing Gibbous, 68% visible
Pressure 30.08 in
Visibility 10.0 miles
Clouds Overcast 800 ft
Dew Point 68 °F
Humidity 94%
Rainfall 0.00 in
Snow Depth Not available.
UV 0 out of 12
Pollen 9.50 out of 12
Air Quality Not available.
Flu Activity Not available.
METAR KNQX 271253Z 01012KT 10SM OVC008 20/18 A3008 RMK AO2 SLP186 T02000183 $

More Conditions Fewer Conditions

Pressure 30.08 in
Visibility 10.0 miles
Clouds Overcast 800 ft
Dew Point 68 °F
Humidity 94%
Rainfall 0.00 in
Snow Depth Not available.
UV 0 out of 12
Pollen 9.50 out of 12
Air Quality Not available.
Flu Activity Not available.
METAR KNQX 271253Z 01012KT 10SM OVC008 20/18 A3008 RMK AO2 SLP186 T02000183 $

More Conditions Fewer Conditions

Nowcast | as of 8:11 am EST on February 27, 2015

Until 1000 am...light rains will affect the waters in and around Dry Tortugas...and extend into the outer waters of Mainland Monroe beyond 40 nm west of Chokoloskee and East Cape Sable. Isolated small showers will also be found in the Atlantic waters beyond the reef 15 nm southeast of the Keys island chain. Movement of the activity will be toward the northeast at 15 to 20 knots.

×

10-Day Weather Forecast

Almanac

Astronomy

Feb. 27, 2015 Rise Set
Actual Time
Civil Twilight
Nautical Twilight
Astronomical Twilight
Moon
Length of Visible Light
Length of Day
Tomorrow will be .
, % of the Moon is Illuminated

Today's Extremes

State Highs State Lows

Community

WunderPhotos

Upload Photos

1,800,673 photos uploaded!

WunderBlogs® & News

Nearby

Air Quality

  Air Quality AQ Index Pollutant
Not available.

Snow Depth

Station Depth Elevation

Earthquake Activity

City Distance Mag. Time & Date
Minimum magnitude displayed is 2.5.

Coastal Water Temperatures

Place Temperature

Nearby Weather Stations